Time;durP1;ratioP1;P1;durP2;ratioP2;P2;SDS_P1;SDS_P2;PMS_P1;PMS_P2;Temp;Humidity;BMP_temperature;BMP_pressure;BME280_temperature;BME280_humidity;BME280_pressure;Samples;Min_cycle;Max_cycle;Signal;HPM_P1;HPM_P2
2021/08/20 00:01:42;;;;;;;4.82;3.22;;;16.80;93.50;;;;;;4862351;29;20402;-86
2021/08/20 00:04:07;;;;;;;5.40;3.40;;;16.80;93.40;;;;;;4862336;29;20057;-87
2021/08/20 00:06:33;;;;;;;6.00;3.97;;;16.90;93.40;;;;;;4861569;29;20168;-86
2021/08/20 00:09:01;;;;;;;6.10;4.10;;;16.80;93.40;;;;;;4861732;29;20053;-86
2021/08/20 00:11:26;;;;;;;4.60;3.00;;;16.80;93.50;;;;;;4862273;29;20097;-87
2021/08/20 00:13:52;;;;;;;6.43;4.60;;;16.80;93.40;;;;;;4861244;29;20064;-85
2021/08/20 00:16:18;;;;;;;5.45;3.70;;;16.80;93.20;;;;;;4861645;29;20065;-87
2021/08/20 00:18:44;;;;;;;6.35;4.00;;;16.80;93.40;;;;;;4862183;29;20057;-87
2021/08/20 00:21:10;;;;;;;5.88;4.20;;;16.80;93.50;;;;;;4860461;29;20049;-87
2021/08/20 00:23:36;;;;;;;5.78;3.88;;;16.80;93.60;;;;;;4862390;29;20101;-87
2021/08/20 00:26:02;;;;;;;5.70;4.05;;;16.80;93.60;;;;;;4861980;29;20058;-86
2021/08/20 00:28:28;;;;;;;5.80;3.60;;;16.80;93.60;;;;;;4862057;29;20113;-87
2021/08/20 00:30:54;;;;;;;6.25;4.13;;;16.70;93.30;;;;;;4862161;29;20058;-86
2021/08/20 00:33:20;;;;;;;6.07;4.30;;;16.70;93.50;;;;;;4862035;29;20451;-86
2021/08/20 00:35:46;;;;;;;6.75;3.90;;;16.70;93.60;;;;;;4860860;29;20050;-86
2021/08/20 00:38:13;;;;;;;6.50;4.30;;;16.70;93.60;;;;;;4862092;29;20117;-87
2021/08/20 00:40:39;;;;;;;6.05;4.70;;;16.70;93.60;;;;;;4861065;29;20053;-86
2021/08/20 00:43:07;;;;;;;8.18;4.78;;;16.70;93.80;;;;;;4861499;29;20475;-86
2021/08/20 00:45:33;;;;;;;6.63;4.68;;;16.60;93.70;;;;;;4861848;29;20494;-86
2021/08/20 00:47:59;;;;;;;8.55;5.93;;;16.60;93.50;;;;;;4861031;29;20064;-86
2021/08/20 00:50:25;;;;;;;8.43;5.00;;;16.60;93.30;;;;;;4861750;29;20049;-84
2021/08/20 00:52:51;;;;;;;8.60;5.82;;;16.60;93.40;;;;;;4861522;29;20065;-86
2021/08/20 00:55:19;;;;;;;8.05;5.85;;;16.60;93.30;;;;;;4860715;29;20482;-86
2021/08/20 00:57:48;;;;;;;13.18;7.72;;;16.60;93.30;;;;;;4861422;29;20101;-85
2021/08/20 01:00:16;;;;;;;8.10;5.07;;;16.60;93.40;;;;;;4861968;29;20064;-85
2021/08/20 01:02:43;;;;;;;8.13;5.68;;;16.50;93.50;;;;;;4861374;29;20067;-86
2021/08/20 01:05:10;;;;;;;8.68;6.03;;;16.50;93.50;;;;;;4863255;29;20056;-86
2021/08/20 01:07:37;;;;;;;14.25;9.05;;;16.50;93.60;;;;;;4865423;29;20053;-86
2021/08/20 01:10:07;;;;;;;8.63;5.18;;;16.50;93.60;;;;;;4864858;29;20053;-85
2021/08/20 01:12:35;;;;;;;13.98;11.52;;;16.50;93.50;;;;;;4865975;29;20128;-85
2021/08/20 01:15:01;;;;;;;13.25;8.77;;;16.40;93.50;;;;;;4865587;29;20086;-85
2021/08/20 01:17:26;;;;;;;9.20;7.53;;;16.40;93.60;;;;;;4864513;29;20045;-86
2021/08/20 01:19:53;;;;;;;15.13;10.65;;;16.40;93.70;;;;;;4864554;29;20057;-86
2021/08/20 01:22:19;;;;;;;9.93;6.80;;;16.40;93.60;;;;;;4864366;29;20516;-86
2021/08/20 01:24:48;;;;;;;10.07;7.45;;;16.40;93.60;;;;;;4864213;29;20093;-86
2021/08/20 01:27:16;;;;;;;9.30;7.00;;;16.40;93.40;;;;;;4865012;29;20505;-87
2021/08/20 01:29:42;;;;;;;13.50;10.05;;;16.30;93.40;;;;;;4864536;29;20554;-86
2021/08/20 01:32:08;;;;;;;13.35;9.52;;;16.30;93.60;;;;;;4865134;29;20098;-86
2021/08/20 01:34:36;;;;;;;15.55;10.93;;;16.30;93.70;;;;;;4864800;29;20092;-86
2021/08/20 01:37:02;;;;;;;15.57;10.30;;;16.30;93.70;;;;;;4864254;29;20585;-86
2021/08/20 01:39:27;;;;;;;10.93;8.27;;;16.30;93.70;;;;;;4865124;29;20053;-87
2021/08/20 01:41:53;;;;;;;19.58;12.73;;;16.30;93.60;;;;;;4864566;29;20061;-86
2021/08/20 01:44:19;;;;;;;10.65;8.50;;;16.30;93.60;;;;;;4864197;29;20133;-86
2021/08/20 01:46:44;;;;;;;14.90;10.60;;;16.30;93.70;;;;;;4864380;29;20053;-86
2021/08/20 01:49:10;;;;;;;13.38;10.27;;;16.20;93.50;;;;;;4864950;29;20153;-86
2021/08/20 01:51:36;;;;;;;11.65;8.80;;;16.20;93.70;;;;;;4863617;29;20402;-87
2021/08/20 01:54:03;;;;;;;10.88;8.70;;;16.20;93.80;;;;;;4864264;29;20109;-86
2021/08/20 01:56:31;;;;;;;15.05;10.60;;;16.20;93.90;;;;;;4864409;29;20049;-86
2021/08/20 01:58:57;;;;;;;14.10;11.60;;;16.20;93.70;;;;;;4863819;29;20057;-86
2021/08/20 02:01:23;;;;;;;11.70;9.48;;;16.20;93.60;;;;;;4864546;29;20046;-86
2021/08/20 02:03:49;;;;;;;12.38;10.48;;;16.20;93.70;;;;;;4864441;29;20068;-87
2021/08/20 02:06:15;;;;;;;17.42;14.38;;;16.20;93.70;;;;;;4863169;29;20053;-86
2021/08/20 02:08:41;;;;;;;18.58;14.10;;;16.20;93.70;;;;;;4864703;29;20136;-86
2021/08/20 02:11:07;;;;;;;13.95;10.30;;;16.20;93.60;;;;;;4864541;29;20052;-86
2021/08/20 02:13:33;;;;;;;14.02;10.82;;;16.20;93.50;;;;;;4863605;29;20068;-85
2021/08/20 02:15:59;;;;;;;20.27;15.27;;;16.20;93.30;;;;;;4864302;29;20088;-86
2021/08/20 02:18:26;;;;;;;13.13;10.32;;;16.10;93.30;;;;;;4864062;29;20049;-86
2021/08/20 02:20:53;;;;;;;12.95;10.48;;;16.10;93.50;;;;;;4863128;29;20156;-86
2021/08/20 02:23:19;;;;;;;24.23;17.63;;;16.10;93.50;;;;;;4864100;29;20498;-86
2021/08/20 02:25:44;;;;;;;14.90;12.45;;;16.00;93.50;;;;;;4863396;29;20064;-86
2021/08/20 02:28:10;;;;;;;15.32;11.90;;;16.00;93.50;;;;;;4862528;29;20061;-86
2021/08/20 02:30:36;;;;;;;20.83;17.13;;;16.00;93.40;;;;;;4863741;29;20101;-86
2021/08/20 02:33:02;;;;;;;18.35;14.85;;;16.00;93.30;;;;;;4862732;29;20053;-87
2021/08/20 02:35:28;;;;;;;18.65;13.95;;;16.00;93.30;;;;;;4864194;29;20053;-86
2021/08/20 02:37:54;;;;;;;15.30;12.63;;;16.00;93.40;;;;;;4863064;29;20114;-86
2021/08/20 02:40:21;;;;;;;21.33;15.38;;;16.00;93.40;;;;;;4863225;29;20076;-86
2021/08/20 02:42:46;;;;;;;14.65;11.77;;;16.00;93.40;;;;;;4863489;29;20493;-87
2021/08/20 02:45:13;;;;;;;18.85;14.20;;;16.00;93.50;;;;;;4862819;29;20060;-86
2021/08/20 02:47:39;;;;;;;17.92;14.13;;;16.00;93.70;;;;;;4862719;29;20045;-86
2021/08/20 02:50:06;;;;;;;24.95;18.25;;;16.00;93.70;;;;;;4863142;29;20190;-87
2021/08/20 02:52:32;;;;;;;19.88;15.20;;;16.00;93.80;;;;;;4863224;29;20506;-86
2021/08/20 02:54:58;;;;;;;15.68;12.73;;;15.90;93.70;;;;;;4862113;29;20140;-87
2021/08/20 02:57:27;;;;;;;24.25;18.58;;;15.90;93.80;;;;;;4862669;29;20061;-87
2021/08/20 02:59:54;;;;;;;15.52;12.45;;;15.90;93.80;;;;;;4863320;29;20056;-86
2021/08/20 03:02:19;;;;;;;21.75;15.68;;;15.90;93.70;;;;;;4862357;29;20058;-86
2021/08/20 03:04:45;;;;;;;18.98;14.82;;;15.90;93.70;;;;;;4863331;29;20058;-86
2021/08/20 03:07:11;;;;;;;17.63;14.73;;;15.90;93.70;;;;;;4863600;29;20482;-86
2021/08/20 03:09:37;;;;;;;15.68;12.13;;;15.90;93.90;;;;;;4862196;29;20086;-86
2021/08/20 03:12:03;;;;;;;15.73;12.82;;;15.80;93.70;;;;;;4863126;29;20151;-86
2021/08/20 03:14:29;;;;;;;18.08;14.52;;;15.80;93.70;;;;;;4863173;29;20402;-86
2021/08/20 03:16:55;;;;;;;18.10;14.45;;;15.80;93.80;;;;;;4862168;29;20053;-87
2021/08/20 03:19:20;;;;;;;17.23;13.73;;;15.80;93.70;;;;;;4863358;29;20054;-86
2021/08/20 03:21:48;;;;;;;17.02;13.95;;;15.80;93.80;;;;;;4862968;29;20053;-86
2021/08/20 03:24:13;;;;;;;18.45;15.13;;;15.80;93.70;;;;;;4862000;29;20510;-86
2021/08/20 03:26:39;;;;;;;21.08;15.77;;;15.80;93.60;;;;;;4863028;29;20104;-86
2021/08/20 03:29:05;;;;;;;15.60;12.65;;;15.80;93.50;;;;;;4862867;29;20117;-86
2021/08/20 03:31:31;;;;;;;18.08;14.15;;;15.80;93.30;;;;;;4862298;29;20110;-86
2021/08/20 03:33:56;;;;;;;17.75;13.63;;;15.80;93.70;;;;;;4862313;29;20057;-86
2021/08/20 03:36:23;;;;;;;16.85;13.55;;;15.80;93.70;;;;;;4861669;29;20459;-86
2021/08/20 03:38:50;;;;;;;20.13;15.27;;;15.80;93.40;;;;;;4862652;29;20061;-87
2021/08/20 03:41:20;;;;;;;21.05;16.60;;;15.70;93.30;;;;;;4862407;29;20077;-86
2021/08/20 03:43:46;;;;;;;17.30;14.48;;;15.70;93.40;;;;;;4861846;29;20055;-86
2021/08/20 03:46:12;;;;;;;20.02;14.68;;;15.70;93.60;;;;;;4862467;29;20069;-87
2021/08/20 03:48:38;;;;;;;17.70;14.30;;;15.70;93.50;;;;;;4862813;29;20140;-86
2021/08/20 03:51:04;;;;;;;24.38;18.90;;;15.70;93.70;;;;;;4862079;29;20062;-86
2021/08/20 03:53:30;;;;;;;23.90;18.52;;;15.70;93.60;;;;;;4862554;29;20064;-86
2021/08/20 03:55:56;;;;;;;18.17;14.32;;;15.70;93.80;;;;;;4861905;29;20069;-87
2021/08/20 03:58:22;;;;;;;18.48;15.32;;;15.70;93.50;;;;;;4861810;29;20052;-86
2021/08/20 04:00:54;;;;;;;17.85;14.68;;;15.70;93.40;;;;;;4862290;29;20053;-85
2021/08/20 04:03:23;;;;;;;19.13;14.18;;;15.70;93.60;;;;;;4862766;29;20057;-86
2021/08/20 04:05:49;;;;;;;21.83;17.05;;;15.70;93.90;;;;;;4861105;29;20502;-86
2021/08/20 04:08:16;;;;;;;19.30;15.80;;;15.70;94.10;;;;;;4861914;29;20049;-86
2021/08/20 04:10:43;;;;;;;20.80;16.60;;;15.70;93.80;;;;;;4862133;29;20110;-86
2021/08/20 04:13:09;;;;;;;19.15;15.65;;;15.70;93.90;;;;;;4861286;29;20058;-86
2021/08/20 04:15:37;;;;;;;22.40;16.80;;;15.70;93.60;;;;;;4861742;29;20049;-86
2021/08/20 04:18:03;;;;;;;24.20;19.83;;;15.70;93.60;;;;;;4862430;29;20064;-86
2021/08/20 04:20:29;;;;;;;21.00;16.27;;;15.70;93.60;;;;;;4861360;29;20084;-85
2021/08/20 04:22:55;;;;;;;21.10;18.08;;;15.70;93.50;;;;;;4862280;29;20049;-86
2021/08/20 04:25:22;;;;;;;30.05;20.80;;;15.70;93.60;;;;;;4862159;29;20077;-86
2021/08/20 04:27:48;;;;;;;25.63;19.85;;;15.70;93.80;;;;;;4861313;29;20532;-86
2021/08/20 04:30:16;;;;;;;21.30;18.27;;;15.70;93.80;;;;;;4862354;29;20085;-86
2021/08/20 04:32:42;;;;;;;22.88;19.02;;;15.70;93.60;;;;;;4861593;29;20061;-85
2021/08/20 04:35:08;;;;;;;22.35;17.85;;;15.60;93.70;;;;;;4861886;29;20550;-85
2021/08/20 04:37:36;;;;;;;19.70;15.48;;;15.70;93.70;;;;;;4861730;29;20398;-86
2021/08/20 04:40:01;;;;;;;31.83;21.95;;;15.70;93.50;;;;;;4861842;29;20050;-86
2021/08/20 04:42:27;;;;;;;25.83;18.88;;;15.70;93.70;;;;;;4865589;29;20057;-86
2021/08/20 04:44:53;;;;;;;21.63;16.85;;;15.70;93.80;;;;;;4866013;29;20057;-85
2021/08/20 04:47:19;;;;;;;21.40;17.38;;;15.70;93.90;;;;;;4864956;29;20070;-87
2021/08/20 04:49:44;;;;;;;23.15;18.50;;;15.60;93.80;;;;;;4865731;29;20058;-85
2021/08/20 04:52:10;;;;;;;19.52;15.82;;;15.70;93.80;;;;;;4865499;29;20205;-87
2021/08/20 04:54:36;;;;;;;25.33;18.50;;;15.70;93.80;;;;;;4864382;29;20093;-87
2021/08/20 04:57:02;;;;;;;20.83;17.30;;;15.60;93.70;;;;;;4865065;29;20060;-86
2021/08/20 04:59:27;;;;;;;23.17;18.92;;;15.70;93.80;;;;;;4865395;29;20061;-87
2021/08/20 05:01:53;;;;;;;22.25;18.33;;;15.60;93.70;;;;;;4864334;29;20056;-86
2021/08/20 05:04:19;;;;;;;22.15;18.65;;;15.60;93.60;;;;;;4865662;29;20057;-85
2021/08/20 05:06:44;;;;;;;21.95;17.23;;;15.60;93.70;;;;;;4865286;29;20132;-85
2021/08/20 05:09:10;;;;;;;21.80;18.52;;;15.60;93.50;;;;;;4864330;29;20422;-86
2021/08/20 05:11:36;;;;;;;27.20;21.92;;;15.60;93.60;;;;;;4865135;29;20049;-86
2021/08/20 05:14:03;;;;;;;30.60;23.23;;;15.60;93.70;;;;;;4865487;29;20458;-86
2021/08/20 05:16:28;;;;;;;23.95;17.90;;;15.60;93.80;;;;;;4864684;29;20077;-86
2021/08/20 05:18:55;;;;;;;21.98;17.55;;;15.60;93.80;;;;;;4865425;29;20088;-86
2021/08/20 05:21:22;;;;;;;22.85;18.00;;;15.60;93.80;;;;;;4865098;29;20124;-86
2021/08/20 05:23:49;;;;;;;20.08;15.70;;;15.60;94.20;;;;;;4864338;29;20114;-86
2021/08/20 05:26:15;;;;;;;23.10;18.25;;;15.60;93.50;;;;;;4864551;29;20052;-86
2021/08/20 05:28:41;;;;;;;21.73;16.98;;;15.50;93.60;;;;;;4865205;29;20057;-87
2021/08/20 05:31:06;;;;;;;20.05;17.08;;;15.50;93.70;;;;;;4863233;29;20105;-86
2021/08/20 05:33:34;;;;;;;25.20;19.33;;;15.50;93.60;;;;;;4865240;29;20061;-86
2021/08/20 05:36:01;;;;;;;20.92;17.48;;;15.50;93.60;;;;;;4863945;29;20065;-86
2021/08/20 05:38:28;;;;;;;26.50;19.98;;;15.50;93.70;;;;;;4864398;29;20081;-86
2021/08/20 05:40:54;;;;;;;20.88;16.75;;;15.50;93.60;;;;;;4864215;29;20054;-87
2021/08/20 05:43:22;;;;;;;22.13;18.60;;;15.50;93.50;;;;;;4863936;29;20053;-86
2021/08/20 05:45:48;;;;;;;20.92;17.63;;;15.50;93.70;;;;;;4864157;29;20045;-86
2021/08/20 05:48:14;;;;;;;19.45;17.35;;;15.50;93.60;;;;;;4865090;29;20056;-86
2021/08/20 05:50:39;;;;;;;21.58;17.13;;;15.50;93.70;;;;;;4863517;29;20053;-86
2021/08/20 05:53:05;;;;;;;24.20;19.88;;;15.50;93.70;;;;;;4863730;29;20052;-86
2021/08/20 05:55:31;;;;;;;21.05;16.30;;;15.50;93.90;;;;;;4863786;29;20065;-86
2021/08/20 05:58:00;;;;;;;20.77;17.23;;;15.50;93.60;;;;;;4863451;29;20057;-86
2021/08/20 06:00:26;;;;;;;19.60;16.45;;;15.50;93.60;;;;;;4864375;29;20094;-86
2021/08/20 06:02:53;;;;;;;22.92;18.52;;;15.50;93.50;;;;;;4864748;29;20079;-87
2021/08/20 06:05:19;;;;;;;20.80;17.25;;;15.50;93.80;;;;;;4863496;29;20088;-87
2021/08/20 06:07:44;;;;;;;21.50;18.30;;;15.40;93.90;;;;;;4864513;29;20513;-87
2021/08/20 06:10:12;;;;;;;21.23;18.88;;;15.50;94.10;;;;;;4864222;29;20049;-86
2021/08/20 06:12:38;;;;;;;22.35;18.90;;;15.50;93.90;;;;;;4863324;29;20072;-86
2021/08/20 06:15:04;;;;;;;26.65;20.70;;;15.50;93.90;;;;;;4864373;29;20061;-86
2021/08/20 06:17:32;;;;;;;21.33;18.35;;;15.50;94.10;;;;;;4864238;29;20117;-86
2021/08/20 06:19:58;;;;;;;22.10;18.67;;;15.50;94.10;;;;;;4863551;29;20080;-85
2021/08/20 06:22:23;;;;;;;19.40;17.27;;;15.50;94.00;;;;;;4863630;29;20160;-88
2021/08/20 06:24:53;;;;;;;24.23;19.52;;;15.50;94.10;;;;;;4863913;29;20058;-88
2021/08/20 06:27:19;;;;;;;27.77;21.33;;;15.60;94.20;;;;;;4862750;29;20061;-90
2021/08/20 06:29:47;;;;;;;22.65;18.50;;;15.60;94.20;;;;;;4863960;29;20065;-86
2021/08/20 06:32:13;;;;;;;20.67;16.92;;;15.60;94.10;;;;;;4863008;29;20053;-86
2021/08/20 06:34:39;;;;;;;25.85;20.95;;;15.60;93.80;;;;;;4863520;29;20141;-86
2021/08/20 06:37:05;;;;;;;28.05;21.55;;;15.60;94.10;;;;;;4861916;29;20418;-87
2021/08/20 06:39:31;;;;;;;29.80;21.98;;;15.60;94.30;;;;;;4863082;29;20053;-86
2021/08/20 06:41:57;;;;;;;29.25;22.35;;;15.70;94.60;;;;;;4863837;29;20387;-87
2021/08/20 06:44:23;;;;;;;29.48;23.63;;;15.70;94.60;;;;;;4863760;29;20074;-86
2021/08/20 06:46:48;;;;;;;27.85;19.83;;;15.70;94.90;;;;;;4862423;29;20454;-86
2021/08/20 06:49:14;;;;;;;29.42;22.48;;;15.80;94.60;;;;;;4863646;29;20109;-87
2021/08/20 06:51:40;;;;;;;30.00;22.52;;;15.80;94.70;;;;;;4863089;29;20136;-87
2021/08/20 06:54:06;;;;;;;32.22;24.08;;;15.80;94.90;;;;;;4862476;29;20092;-86
2021/08/20 06:56:32;;;;;;;31.55;23.75;;;15.80;95.00;;;;;;4863290;29;20053;-86
2021/08/20 06:58:58;;;;;;;33.38;24.88;;;15.90;95.50;;;;;;4863549;29;20053;-86
2021/08/20 07:01:27;;;;;;;25.08;19.95;;;15.90;95.40;;;;;;4862372;29;20057;-86
2021/08/20 07:03:55;;;;;;;25.85;20.75;;;15.90;95.00;;;;;;4862287;29;20050;-85
2021/08/20 07:06:26;;;;;;;33.40;23.98;;;15.90;95.10;;;;;;4862980;29;20049;-85
2021/08/20 07:08:53;;;;;;;31.38;21.80;;;15.90;95.50;;;;;;4862615;29;20526;-85
2021/08/20 07:11:21;;;;;;;24.50;20.35;;;16.00;95.90;;;;;;4862478;29;20514;-86
2021/08/20 07:13:47;;;;;;;27.63;20.60;;;16.10;95.40;;;;;;4862530;29;20413;-85
2021/08/20 07:16:13;;;;;;;31.95;23.38;;;16.20;95.30;;;;;;4861766;29;20405;-86
2021/08/20 07:18:39;;;;;;;29.27;23.10;;;16.20;95.50;;;;;;4862481;29;20132;-86
2021/08/20 07:21:05;;;;;;;32.72;24.40;;;16.30;95.70;;;;;;4862518;29;20076;-85
2021/08/20 07:23:31;;;;;;;29.10;23.10;;;16.30;95.80;;;;;;4861687;29;20439;-85
2021/08/20 07:25:59;;;;;;;28.92;21.42;;;16.40;96.00;;;;;;4862150;29;20542;-86
2021/08/20 07:28:26;;;;;;;30.77;23.85;;;16.50;95.90;;;;;;4861640;29;20053;-85
2021/08/20 07:30:52;;;;;;;27.48;21.42;;;16.50;95.90;;;;;;4862331;29;20133;-85
2021/08/20 07:33:18;;;;;;;31.13;23.35;;;16.60;96.20;;;;;;4862113;29;20132;-85
2021/08/20 07:35:44;;;;;;;27.35;21.88;;;16.60;95.70;;;;;;4861356;29;20387;-86
2021/08/20 07:38:09;;;;;;;30.08;22.88;;;16.60;95.80;;;;;;4861867;29;20076;-85
2021/08/20 07:40:35;;;;;;;35.00;23.90;;;16.70;95.70;;;;;;4862185;29;20463;-85
2021/08/20 07:43:01;;;;;;;29.73;22.90;;;16.70;95.80;;;;;;4861198;29;20406;-86
2021/08/20 07:45:27;;;;;;;32.55;25.30;;;16.80;95.80;;;;;;4861596;29;20049;-84
2021/08/20 07:47:53;;;;;;;32.45;24.83;;;16.80;95.80;;;;;;4862489;29;20674;-85
2021/08/20 07:50:21;;;;;;;33.40;25.85;;;16.80;95.80;;;;;;4861128;29;20049;-84
2021/08/20 07:52:47;;;;;;;30.52;22.90;;;16.80;95.80;;;;;;4861625;29;20045;-85
2021/08/20 07:55:14;;;;;;;31.80;23.10;;;16.90;95.80;;;;;;4861764;29;20132;-84
2021/08/20 07:57:48;;;;;;;32.45;25.98;;;16.90;95.60;;;;;;4861081;29;20078;-85
2021/08/20 08:00:14;;;;;;;30.88;23.65;;;17.00;95.70;;;;;;4861599;29;20609;-85
2021/08/20 08:02:40;;;;;;;37.45;26.25;;;16.90;95.70;;;;;;4861652;29;20057;-85
2021/08/20 08:05:06;;;;;;;28.80;22.70;;;17.00;95.70;;;;;;4861196;29;20258;-85
2021/08/20 08:07:32;;;;;;;32.45;24.40;;;17.00;95.60;;;;;;4861541;29;20128;-85
2021/08/20 08:09:57;;;;;;;34.30;26.00;;;17.10;95.70;;;;;;4861616;29;20058;-84
2021/08/20 08:12:23;;;;;;;31.15;25.55;;;17.10;95.80;;;;;;4861180;29;20062;-85
2021/08/20 08:14:49;;;;;;;31.92;25.42;;;17.10;95.70;;;;;;4862170;29;20061;-86
2021/08/20 08:17:14;;;;;;;32.63;26.00;;;17.10;95.80;;;;;;4862303;29;20049;-85
2021/08/20 08:19:40;;;;;;;27.75;23.73;;;17.20;95.90;;;;;;4861685;29;20409;-86
2021/08/20 08:22:06;;;;;;;38.65;29.60;;;17.30;95.80;;;;;;4862367;29;20470;-85
2021/08/20 08:24:31;;;;;;;34.50;27.13;;;17.30;96.00;;;;;;4861695;29;20119;-85
2021/08/20 08:26:58;;;;;;;33.92;25.92;;;17.30;96.10;;;;;;4860994;29;20474;-85
2021/08/20 08:29:23;;;;;;;36.38;27.25;;;17.30;95.90;;;;;;4860616;29;20113;-85
2021/08/20 08:31:49;;;;;;;38.00;28.75;;;17.40;96.10;;;;;;4861569;29;20060;-84
2021/08/20 08:34:15;;;;;;;34.40;26.75;;;17.40;96.10;;;;;;4861505;29;20072;-84
2021/08/20 08:36:40;;;;;;;35.17;25.90;;;17.50;96.40;;;;;;4861973;29;20046;-85
2021/08/20 08:39:06;;;;;;;27.77;22.98;;;17.50;95.80;;;;;;4861355;29;20057;-85
2021/08/20 08:41:32;;;;;;;33.83;23.98;;;17.50;95.60;;;;;;4861732;29;20053;-85
2021/08/20 08:43:59;;;;;;;34.40;26.17;;;17.50;95.60;;;;;;4861218;29;20081;-86
2021/08/20 08:46:26;;;;;;;39.05;29.90;;;17.60;95.70;;;;;;4860640;29;20069;-86
2021/08/20 08:48:52;;;;;;;37.33;28.38;;;17.60;95.80;;;;;;4861598;29;20050;-86
2021/08/20 08:51:19;;;;;;;35.85;27.65;;;17.60;95.80;;;;;;4861182;29;20447;-85
2021/08/20 08:53:48;;;;;;;43.25;31.10;;;17.60;95.90;;;;;;4860029;29;20061;-85
2021/08/20 08:56:19;;;;;;;36.22;27.02;;;17.60;96.00;;;;;;4861154;29;20064;-86
2021/08/20 08:58:44;;;;;;;40.08;29.90;;;17.70;95.90;;;;;;4861120;29;20097;-86
2021/08/20 09:01:25;;;;;;;36.78;26.42;;;17.70;96.00;;;;;;4861052;29;20084;-86
2021/08/20 09:04:06;;;;;;;40.45;28.38;;;17.70;95.80;;;;;;4860755;29;20053;-87
2021/08/20 09:06:39;;;;;;;35.15;26.25;;;17.70;95.90;;;;;;4861881;29;20060;-85
2021/08/20 09:09:06;;;;;;;37.40;28.48;;;17.70;95.90;;;;;;4860868;29;20062;-86
2021/08/20 09:11:32;;;;;;;38.15;28.08;;;17.70;95.90;;;;;;4861781;29;20073;-86
2021/08/20 09:13:58;;;;;;;33.15;24.77;;;17.70;96.00;;;;;;4860867;29;20077;-85
2021/08/20 09:16:40;;;;;;;37.10;27.58;;;17.80;95.90;;;;;;4861410;29;20057;-85
2021/08/20 09:19:17;;;;;;;44.38;28.77;;;17.80;96.00;;;;;;4860809;29;20057;-86
2021/08/20 09:21:48;;;;;;;42.40;27.60;;;17.90;96.10;;;;;;4860422;29;20136;-86
2021/08/20 09:24:40;;;;;;;39.38;27.95;;;17.90;96.10;;;;;;4861192;29;20045;-86
2021/08/20 09:27:18;;;;;;;32.25;25.80;;;17.90;96.10;;;;;;4863465;29;20061;-87
2021/08/20 09:30:08;;;;;;;39.25;28.27;;;17.90;96.10;;;;;;4863466;29;20085;-85
2021/08/20 09:32:46;;;;;;;34.63;25.52;;;18.00;96.30;;;;;;4864000;29;20053;-86
2021/08/20 09:35:12;;;;;;;39.28;27.17;;;18.00;96.20;;;;;;4863663;29;20149;-85
2021/08/20 09:37:38;;;;;;;32.45;25.73;;;18.10;96.40;;;;;;4864883;29;20045;-85
2021/08/20 09:40:08;;;;;;;32.58;24.15;;;18.10;96.10;;;;;;4864720;29;20193;-85
2021/08/20 09:42:35;;;;;;;35.63;26.38;;;18.20;96.00;;;;;;4864674;29;20192;-86
2021/08/20 09:45:22;;;;;;;31.15;24.00;;;18.20;95.90;;;;;;4863794;29;20049;-85
2021/08/20 09:47:50;;;;;;;31.98;24.33;;;18.30;95.80;;;;;;4864702;29;20054;-85
2021/08/20 09:50:19;;;;;;;34.17;24.25;;;18.30;95.80;;;;;;4863961;29;20439;-85
2021/08/20 09:52:44;;;;;;;28.15;22.40;;;18.40;95.80;;;;;;4864407;29;20064;-86
2021/08/20 09:55:10;;;;;;;31.10;23.75;;;18.40;95.60;;;;;;4864391;29;20061;-85
2021/08/20 09:57:38;;;;;;;32.65;22.75;;;18.50;95.60;;;;;;4863885;29;20049;-85
2021/08/20 10:00:08;;;;;;;29.50;22.33;;;18.50;95.90;;;;;;4864513;29;20058;-86
2021/08/20 10:02:37;;;;;;;27.58;21.38;;;18.60;95.50;;;;;;4864233;29;20054;-85
2021/08/20 10:05:03;;;;;;;28.92;22.90;;;18.60;95.40;;;;;;4863143;29;20486;-84
2021/08/20 10:07:31;;;;;;;32.80;22.48;;;18.70;95.40;;;;;;4864448;29;20056;-85
2021/08/20 10:10:01;;;;;;;28.52;19.73;;;18.80;95.60;;;;;;4864125;29;20102;-84
2021/08/20 10:12:27;;;;;;;27.05;19.77;;;18.90;95.30;;;;;;4863509;29;20095;-85
2021/08/20 10:14:53;;;;;;;28.60;20.27;;;19.00;95.10;;;;;;4863973;29;20054;-84
2021/08/20 10:17:19;;;;;;;23.50;19.77;;;19.10;95.20;;;;;;4862984;29;20486;-86
2021/08/20 10:19:48;;;;;;;25.10;19.85;;;19.10;95.10;;;;;;4863769;29;20060;-86
2021/08/20 10:22:14;;;;;;;27.23;19.20;;;19.20;94.90;;;;;;4863863;29;20054;-87
2021/08/20 10:24:40;;;;;;;26.95;17.33;;;19.30;94.90;;;;;;4862972;29;20068;-86
2021/08/20 10:27:09;;;;;;;23.52;16.48;;;19.30;94.70;;;;;;4863962;29;20558;-86
2021/08/20 10:29:39;;;;;;;21.63;16.73;;;19.40;94.70;;;;;;4863868;29;20059;-86
2021/08/20 10:32:09;;;;;;;19.77;14.88;;;19.40;94.60;;;;;;4862785;29;20054;-87
2021/08/20 10:34:37;;;;;;;19.50;14.43;;;19.40;94.40;;;;;;4863416;29;20497;-85
2021/08/20 10:37:16;;;;;;;21.13;14.43;;;19.50;94.20;;;;;;4862978;29;20125;-86
2021/08/20 10:39:47;;;;;;;18.15;13.90;;;19.50;94.00;;;;;;4862906;29;20075;-87
2021/08/20 10:42:41;;;;;;;20.70;13.40;;;19.60;94.10;;;;;;4863489;29;20049;-86
2021/08/20 10:45:10;;;;;;;;;;;19.60;94.00;;;;;;4858874;29;20501;-83
2021/08/20 10:47:37;;;;;;;18.02;11.88;;;19.60;94.00;;;;;;4862273;29;19924;-85
2021/08/20 10:50:19;;;;;;;16.58;11.90;;;19.70;94.20;;;;;;4862610;29;20045;-84
2021/08/20 10:52:46;;;;;;;19.15;11.55;;;19.80;93.70;;;;;;4861886;29;20413;-84
2021/08/20 10:55:21;;;;;;;15.85;11.02;;;19.80;94.00;;;;;;4862594;29;20057;-84
2021/08/20 10:58:06;;;;;;;18.58;11.98;;;19.90;93.80;;;;;;4862649;29;20049;-87
2021/08/20 11:00:35;;;;;;;15.95;11.50;;;20.00;93.50;;;;;;4861566;29;20053;-83
2021/08/20 11:03:10;;;;;;;15.80;9.93;;;20.20;93.60;;;;;;4862755;29;20100;-84
2021/08/20 11:06:01;;;;;;;13.57;9.02;;;20.20;93.20;;;;;;4862481;29;20057;-84
2021/08/20 11:08:27;;;;;;;13.07;7.28;;;20.30;92.70;;;;;;4859544;29;20053;-83
2021/08/20 11:10:54;;;;;;;12.80;6.78;;;20.40;92.40;;;;;;4862338;29;20057;-84
2021/08/20 11:13:19;;;;;;;13.95;7.68;;;20.50;92.20;;;;;;4862342;29;20057;-84
2021/08/20 11:15:46;;;;;;;13.52;7.95;;;20.60;91.80;;;;;;4861643;29;20570;-83
2021/08/20 11:18:12;;;;;;;11.55;7.00;;;20.60;91.50;;;;;;4862499;29;20505;-83
2021/08/20 11:20:43;;;;;;;9.57;6.05;;;20.60;91.30;;;;;;4861764;29;20049;-83
2021/08/20 11:23:12;;;;;;;12.52;6.72;;;20.70;91.20;;;;;;4862308;29;20483;-85
2021/08/20 11:25:40;;;;;;;11.07;6.90;;;20.70;91.20;;;;;;4862272;29;20121;-83
2021/08/20 11:28:09;;;;;;;11.18;7.20;;;20.70;91.00;;;;;;4861205;29;20141;-84
2021/08/20 11:30:41;;;;;;;17.23;6.95;;;20.80;91.00;;;;;;4863099;29;20085;-84
2021/08/20 11:33:15;;;;;;;10.45;6.40;;;20.80;91.00;;;;;;4863476;29;20057;-84
2021/08/20 11:35:42;;;;;;;12.10;6.78;;;20.80;90.90;;;;;;4862209;29;20102;-84
2021/08/20 11:38:08;;;;;;;12.15;6.22;;;20.90;90.70;;;;;;4862732;29;20125;-84
2021/08/20 11:40:51;;;;;;;12.23;6.38;;;20.90;90.70;;;;;;4862358;29;20502;-84
2021/08/20 11:43:17;;;;;;;11.70;6.90;;;20.90;90.70;;;;;;4861881;29;20054;-83
2021/08/20 11:45:43;;;;;;;10.50;6.85;;;21.00;90.60;;;;;;4861778;29;20156;-83
2021/08/20 11:48:09;;;;;;;12.85;6.63;;;21.00;90.60;;;;;;4861689;29;20077;-83
2021/08/20 11:50:35;;;;;;;11.88;6.20;;;21.10;90.60;;;;;;4860908;29;20057;-84
2021/08/20 11:53:01;;;;;;;14.88;6.82;;;21.10;90.40;;;;;;4861915;29;20053;-84
2021/08/20 11:55:27;;;;;;;11.73;6.57;;;21.10;90.30;;;;;;4861774;29;20097;-84
2021/08/20 11:57:53;;;;;;;10.68;6.22;;;21.20;90.10;;;;;;4860852;29;20045;-84
2021/08/20 12:00:18;;;;;;;11.98;6.53;;;21.30;90.00;;;;;;4861852;29;20094;-84
2021/08/20 12:02:46;;;;;;;11.18;6.20;;;21.30;90.10;;;;;;4860990;29;20060;-84
2021/08/20 12:05:22;;;;;;;13.63;7.10;;;21.30;90.20;;;;;;4861658;29;20050;-83
2021/08/20 12:07:48;;;;;;;10.30;6.60;;;21.30;90.20;;;;;;4861407;29;20490;-84
2021/08/20 12:10:17;;;;;;;12.13;6.82;;;21.40;90.10;;;;;;4860765;29;20089;-83
2021/08/20 12:12:45;;;;;;;11.73;6.53;;;21.40;90.30;;;;;;4861741;29;20056;-84
2021/08/20 12:15:12;;;;;;;12.30;6.40;;;21.40;90.10;;;;;;4861467;29;20060;-84
2021/08/20 12:17:38;;;;;;;10.60;6.18;;;21.50;90.00;;;;;;4860580;29;20045;-84
2021/08/20 12:20:22;;;;;;;8.07;5.50;;;21.50;89.10;;;;;;4861669;29;20406;-84
2021/08/20 12:22:50;;;;;;;11.95;5.35;;;21.50;89.00;;;;;;4861388;29;20054;-84
2021/08/20 12:25:17;;;;;;;12.73;5.85;;;21.50;89.10;;;;;;4860820;29;20125;-84
2021/08/20 12:27:45;;;;;;;8.95;6.20;;;21.50;88.40;;;;;;4861744;29;20451;-84
2021/08/20 12:30:16;;;;;;;10.55;6.57;;;21.50;88.20;;;;;;4861967;29;20057;-84
2021/08/20 12:32:57;;;;;;;11.23;6.78;;;21.50;88.50;;;;;;4861233;29;20057;-84